createdAt,value
2022-10-05T00:00:56.247Z,8.74
2022-10-05T00:03:37.247Z,8.76
2022-10-05T00:06:05.599Z,8.74
2022-10-05T00:08:35.006Z,8.72
2022-10-05T00:11:02.869Z,8.67
2022-10-05T00:13:31.556Z,8.72
2022-10-05T00:16:05.108Z,8.76
2022-10-05T00:18:33.130Z,8.77
2022-10-05T00:21:01.103Z,8.80
2022-10-05T00:23:32.237Z,8.83
2022-10-05T00:26:11.722Z,8.84
2022-10-05T00:28:41.078Z,8.83
2022-10-05T00:31:17.931Z,8.79
2022-10-05T00:33:46.545Z,8.81
2022-10-05T00:36:14.759Z,8.82
2022-10-05T00:38:43.088Z,8.80
2022-10-05T00:41:30.411Z,8.77
2022-10-05T00:44:04.130Z,8.72
2022-10-05T00:46:44.558Z,8.68
2022-10-05T00:49:35.996Z,8.62
2022-10-05T00:52:20.556Z,8.56
2022-10-05T00:55:11.870Z,8.51
2022-10-05T00:57:51.308Z,8.49
2022-10-05T01:00:23.271Z,8.52
2022-10-05T01:03:09.671Z,8.52
2022-10-05T01:05:51.771Z,8.53
2022-10-05T01:08:25.781Z,8.52
2022-10-05T01:11:10.544Z,8.50
2022-10-05T01:13:51.729Z,8.51
2022-10-05T01:16:29.900Z,8.52
2022-10-05T01:18:58.421Z,8.53
2022-10-05T01:21:27.302Z,8.51
2022-10-05T01:24:19.643Z,8.47
2022-10-05T01:26:56.930Z,8.45
2022-10-05T01:29:30.737Z,8.47
2022-10-05T01:32:37.105Z,8.48
2022-10-05T01:35:40.510Z,8.46
2022-10-05T01:38:17.499Z,8.45
2022-10-05T01:40:48.220Z,8.49
2022-10-05T01:43:25.114Z,8.49
2022-10-05T01:46:07.383Z,8.44
2022-10-05T01:48:47.351Z,8.44
2022-10-05T01:51:15.221Z,8.45
2022-10-05T01:53:57.216Z,8.49
2022-10-05T01:56:37.474Z,8.49
2022-10-05T01:59:16.793Z,8.45
2022-10-05T02:02:09.209Z,8.33
2022-10-05T02:07:31.213Z,8.26
2022-10-05T02:10:03.262Z,8.24
2022-10-05T02:12:33.282Z,8.21
2022-10-05T02:15:08.429Z,8.21
2022-10-05T02:17:38.930Z,8.22
2022-10-05T02:20:10.547Z,8.22
2022-10-05T02:22:41.846Z,8.19
2022-10-05T02:25:13.031Z,8.23
2022-10-05T02:28:04.345Z,8.31
2022-10-05T02:30:34.532Z,8.32
2022-10-05T02:33:18.451Z,8.34
2022-10-05T02:35:46.851Z,8.38
2022-10-05T02:38:20.424Z,8.37
2022-10-05T02:40:49.446Z,8.34
2022-10-05T02:43:39.121Z,8.32
2022-10-05T02:46:17.186Z,8.34
2022-10-05T02:48:51.238Z,8.37
2022-10-05T02:51:19.516Z,8.33
2022-10-05T02:54:11.040Z,8.33
2022-10-05T02:56:39.005Z,8.33
2022-10-05T02:59:09.637Z,8.28
2022-10-05T03:01:50.754Z,8.23
2022-10-05T03:04:32.198Z,8.16
2022-10-05T03:07:33.141Z,8.12
2022-10-05T03:10:20.361Z,8.18
2022-10-05T03:12:53.962Z,8.21
2022-10-05T03:15:26.235Z,8.22
2022-10-05T03:18:03.518Z,8.25
2022-10-05T03:20:40.703Z,8.26
2022-10-05T03:23:13.486Z,8.27
2022-10-05T03:25:47.599Z,8.25
2022-10-05T03:28:26.497Z,8.25
2022-10-05T03:30:55.013Z,8.32
2022-10-05T03:33:30.961Z,8.35
2022-10-05T03:35:59.034Z,8.34
2022-10-05T03:38:45.433Z,8.34
2022-10-05T03:41:21.905Z,8.36
2022-10-05T03:43:49.871Z,8.38
2022-10-05T03:46:27.059Z,8.35
2022-10-05T03:48:58.322Z,8.31
2022-10-05T03:51:35.281Z,8.25
2022-10-05T03:54:06.425Z,8.27
2022-10-05T03:56:44.415Z,8.25
2022-10-05T03:59:22.847Z,8.25
2022-10-05T04:01:59.170Z,8.24
2022-10-05T04:04:31.478Z,8.24
2022-10-05T04:07:00.369Z,8.22
2022-10-05T04:09:34.973Z,8.21
2022-10-05T04:12:10.036Z,8.22
2022-10-05T04:14:41.789Z,8.25
2022-10-05T04:17:12.725Z,8.30
2022-10-05T04:19:44.380Z,8.30
2022-10-05T04:22:16.036Z,8.32
2022-10-05T04:24:47.792Z,8.35
2022-10-05T04:27:18.116Z,8.37
2022-10-05T04:29:49.981Z,8.37
2022-10-05T04:32:29.935Z,8.38
2022-10-05T04:35:05.473Z,8.39
2022-10-05T04:37:33.544Z,8.43
2022-10-05T04:40:19.741Z,8.44
2022-10-05T04:43:03.276Z,8.44
2022-10-05T04:45:45.478Z,8.43
2022-10-05T04:48:29.728Z,8.42
2022-10-05T04:51:03.739Z,8.37
2022-10-05T04:53:36.316Z,8.34
2022-10-05T04:56:10.833Z,8.31
2022-10-05T04:58:57.341Z,8.29
2022-10-05T05:01:44.459Z,8.33
2022-10-05T05:04:21.644Z,8.34
2022-10-05T05:06:57.089Z,8.33
2022-10-05T05:09:25.774Z,8.34
2022-10-05T05:11:53.847Z,8.34
2022-10-05T05:14:40.657Z,8.33
2022-10-05T05:17:14.872Z,8.30
2022-10-05T05:19:52.775Z,8.27
2022-10-05T05:22:29.235Z,8.26
2022-10-05T05:25:12.591Z,8.29
2022-10-05T05:27:48.116Z,8.30
2022-10-05T05:30:33.803Z,8.31
2022-10-05T05:33:08.527Z,8.34
2022-10-05T05:35:45.202Z,8.35
2022-10-05T05:38:13.785Z,8.36
2022-10-05T05:40:46.876Z,8.35
2022-10-05T05:43:24.467Z,8.35
2022-10-05T05:45:59.093Z,8.41
2022-10-05T05:48:43.963Z,8.46
2022-10-05T05:51:21.761Z,8.48
2022-10-05T05:54:09.183Z,8.51
2022-10-05T05:56:43.397Z,8.55
2022-10-05T05:59:14.746Z,8.57
2022-10-05T06:01:49.135Z,8.61
2022-10-05T06:04:19.490Z,8.63
2022-10-05T06:06:50.185Z,8.67
2022-10-05T06:09:33.967Z,8.73
2022-10-05T06:12:18.213Z,8.80
2022-10-05T06:14:52.431Z,8.86
2022-10-05T06:17:25.006Z,8.92
2022-10-05T06:19:55.125Z,8.95
2022-10-05T06:22:30.399Z,9.01
2022-10-05T06:25:07.754Z,9.05
2022-10-05T06:27:44.938Z,9.09
2022-10-05T06:30:15.367Z,9.14
2022-10-05T06:33:16.410Z,9.20
2022-10-05T06:36:00.253Z,9.31
2022-10-05T06:38:48.495Z,9.36
2022-10-05T06:41:35.203Z,9.39
2022-10-05T06:44:03.581Z,9.46
2022-10-05T06:46:55.923Z,9.52
2022-10-05T06:49:51.725Z,9.57
2022-10-05T06:52:46.746Z,9.62
2022-10-05T06:55:21.169Z,9.63
2022-10-05T06:57:49.238Z,9.65
2022-10-05T07:00:22.946Z,9.73
2022-10-05T07:02:57.157Z,9.78
2022-10-05T07:05:31.987Z,9.81
2022-10-05T07:08:03.233Z,9.84
2022-10-05T07:10:33.035Z,9.85
2022-10-05T07:13:20.469Z,9.88
2022-10-05T07:15:55.295Z,9.91
2022-10-05T07:18:42.317Z,9.93
2022-10-05T07:21:22.675Z,9.97
2022-10-05T07:24:09.485Z,10.05
2022-10-05T07:26:46.642Z,10.09
2022-10-05T07:29:44.232Z,10.15
2022-10-05T07:32:22.341Z,10.24
2022-10-05T07:34:59.320Z,10.32
2022-10-05T07:37:49.611Z,10.37
2022-10-05T07:40:39.803Z,10.44
2022-10-05T07:43:14.837Z,10.56
2022-10-05T07:45:52.693Z,10.65
2022-10-05T07:48:33.404Z,10.68
2022-10-05T07:51:20.736Z,10.73
2022-10-05T07:53:59.158Z,10.82
2022-10-05T07:56:34.688Z,10.90
2022-10-05T07:59:18.118Z,10.99
2022-10-05T08:01:49.529Z,11.05
2022-10-05T08:04:20.305Z,11.11
2022-10-05T08:06:50.979Z,11.19
2022-10-05T08:09:19.076Z,11.29
2022-10-05T08:11:47.319Z,11.32
2022-10-05T08:14:16.891Z,11.34
2022-10-05T08:16:46.889Z,11.36
2022-10-05T08:19:28.392Z,11.40
2022-10-05T08:21:59.330Z,11.44
2022-10-05T08:24:46.039Z,11.46
2022-10-05T08:27:16.976Z,11.54
2022-10-05T08:30:02.353Z,11.58
2022-10-05T08:32:33.298Z,11.66
2022-10-05T08:35:01.609Z,11.73
2022-10-05T08:37:32.507Z,11.80
2022-10-05T08:40:00.372Z,11.92
2022-10-05T08:42:44.900Z,12.04
2022-10-05T08:45:31.845Z,12.15
2022-10-05T08:48:18.859Z,12.25
2022-10-05T08:50:58.809Z,12.36
2022-10-05T08:53:52.382Z,12.47
2022-10-05T08:56:22.201Z,12.59
2022-10-05T08:59:10.537Z,12.64
2022-10-05T09:01:40.499Z,12.68
2022-10-05T09:04:17.742Z,12.74
2022-10-05T09:06:53.182Z,12.83
2022-10-05T09:09:21.050Z,12.89
2022-10-05T09:11:49.219Z,12.94
2022-10-05T09:14:36.253Z,12.98
2022-10-05T09:17:09.533Z,12.99
2022-10-05T09:19:52.939Z,12.98
2022-10-05T09:22:38.958Z,12.99
2022-10-05T09:25:10.099Z,13.00
2022-10-05T09:27:39.162Z,13.01
2022-10-05T09:30:27.746Z,13.05
2022-10-05T09:33:11.279Z,13.14
2022-10-05T09:36:00.854Z,13.17
2022-10-05T09:38:34.865Z,13.19
2022-10-05T09:41:35.091Z,13.22
2022-10-05T09:44:08.896Z,13.24
2022-10-05T09:46:45.878Z,13.26
2022-10-05T09:49:16.918Z,13.27
2022-10-05T09:52:03.830Z,13.28
2022-10-05T09:54:31.697Z,13.29
2022-10-05T09:57:17.892Z,13.31
2022-10-05T10:03:00.003Z,13.33
2022-10-05T10:05:34.229Z,13.34
2022-10-05T10:08:14.179Z,13.36
2022-10-05T10:11:02.334Z,13.38
2022-10-05T10:13:30.188Z,13.38
2022-10-05T10:15:58.281Z,13.38
2022-10-05T10:18:35.341Z,13.38
2022-10-05T10:21:06.076Z,13.38
2022-10-05T10:23:49.508Z,13.39
2022-10-05T10:26:23.415Z,13.39
2022-10-05T10:28:57.426Z,13.42
2022-10-05T10:31:31.291Z,13.44
2022-10-05T10:34:18.245Z,13.47
2022-10-05T10:37:11.302Z,13.51
2022-10-05T10:39:58.113Z,13.59
2022-10-05T10:42:29.052Z,13.69
2022-10-05T10:44:58.767Z,13.80
2022-10-05T10:47:44.143Z,13.90
2022-10-05T10:50:33.307Z,14.00
2022-10-05T10:53:20.322Z,14.09
2022-10-05T10:56:12.250Z,14.17
2022-10-05T10:58:40.220Z,14.24
2022-10-05T11:01:08.085Z,14.30
2022-10-05T11:03:54.793Z,14.37
2022-10-05T11:06:38.228Z,14.43
2022-10-05T11:09:09.573Z,14.50
2022-10-05T11:11:37.441Z,14.57
2022-10-05T11:14:08.176Z,14.65
2022-10-05T11:16:54.881Z,14.73
2022-10-05T11:19:39.920Z,14.81
2022-10-05T11:22:17.537Z,14.89
2022-10-05T11:24:45.415Z,14.92
2022-10-05T11:30:02.149Z,14.94
2022-10-05T11:32:33.077Z,14.94
2022-10-05T11:35:29.820Z,14.99
2022-10-05T11:38:10.078Z,15.06
2022-10-05T11:40:49.719Z,15.09
2022-10-05T11:43:17.587Z,15.15
2022-10-05T11:45:45.554Z,15.19
2022-10-05T11:48:22.331Z,15.22
2022-10-05T11:50:50.199Z,15.25
2022-10-05T11:53:24.411Z,15.28
2022-10-05T11:55:54.084Z,15.28
2022-10-05T11:58:42.264Z,15.29
2022-10-05T12:01:18.015Z,15.30
2022-10-05T12:10:14.319Z,15.33
2022-10-05T12:13:01.466Z,15.35
2022-10-05T12:15:42.243Z,15.37
2022-10-05T12:18:24.165Z,15.38
2022-10-05T12:20:52.654Z,15.40
2022-10-05T12:23:30.350Z,15.42
2022-10-05T12:25:58.217Z,15.42
2022-10-05T12:28:33.602Z,15.43
2022-10-05T12:31:15.299Z,15.44
2022-10-05T12:33:49.566Z,15.45
2022-10-05T12:36:19.993Z,15.46
2022-10-05T12:38:54.004Z,15.50
2022-10-05T12:41:25.044Z,15.57
2022-10-05T12:43:59.049Z,15.58
2022-10-05T12:46:35.112Z,15.59
2022-10-05T12:49:03.012Z,15.61
2022-10-05T12:51:30.950Z,15.62
2022-10-05T12:54:13.766Z,15.63
2022-10-05T12:56:52.897Z,15.64
2022-10-05T12:59:23.527Z,15.63
2022-10-05T13:02:09.085Z,15.62
2022-10-05T13:04:38.832Z,15.62
2022-10-05T13:07:19.179Z,15.63
2022-10-05T13:09:50.218Z,15.64
2022-10-05T13:12:36.415Z,15.65
2022-10-05T13:15:19.645Z,15.65
2022-10-05T13:17:58.274Z,15.66
2022-10-05T13:20:28.892Z,15.68
2022-10-05T13:22:59.529Z,15.69
2022-10-05T13:25:31.691Z,15.70
2022-10-05T13:28:02.471Z,15.71
2022-10-05T13:30:30.701Z,15.71
2022-10-05T13:33:04.917Z,15.73
2022-10-05T13:35:35.547Z,15.79
2022-10-05T13:38:26.557Z,15.81
2022-10-05T13:41:00.364Z,15.84
2022-10-05T13:43:33.702Z,15.86
2022-10-05T13:46:07.418Z,15.88
2022-10-05T13:48:54.067Z,15.90
2022-10-05T13:51:23.879Z,15.93
2022-10-05T13:54:10.794Z,15.95
2022-10-05T13:56:42.959Z,15.98
2022-10-05T13:59:19.224Z,16.00
2022-10-05T14:01:53.187Z,16.00
2022-10-05T14:04:24.791Z,15.99
2022-10-05T14:06:53.063Z,15.98
2022-10-05T14:09:20.928Z,15.97
2022-10-05T14:11:54.942Z,15.95
2022-10-05T14:14:28.437Z,15.93
2022-10-05T14:16:58.260Z,15.91
2022-10-05T14:19:28.138Z,15.90
2022-10-05T14:22:01.767Z,15.89
2022-10-05T14:24:44.639Z,15.90
2022-10-05T14:27:19.516Z,15.90
2022-10-05T14:29:54.549Z,15.90
2022-10-05T14:32:27.227Z,15.90
2022-10-05T14:34:55.095Z,15.89
2022-10-05T14:37:31.501Z,15.88
2022-10-05T14:40:03.444Z,15.84
2022-10-05T14:42:46.254Z,15.81
2022-10-05T14:45:18.101Z,15.76
2022-10-05T14:48:02.762Z,15.73
2022-10-05T14:50:31.611Z,15.68
2022-10-05T14:53:11.910Z,15.65
2022-10-05T14:55:51.960Z,15.60
2022-10-05T14:58:28.838Z,15.55
2022-10-05T15:01:02.083Z,15.51
2022-10-05T15:03:46.794Z,15.46
2022-10-05T15:06:37.802Z,15.42
2022-10-05T15:09:16.978Z,15.36
2022-10-05T15:11:53.607Z,15.32
2022-10-05T15:14:21.574Z,15.28
2022-10-05T15:16:58.825Z,15.24
2022-10-05T15:19:40.551Z,15.20
2022-10-05T15:22:11.155Z,15.22
2022-10-05T15:24:42.748Z,15.20
2022-10-05T15:27:24.016Z,15.18
2022-10-05T15:29:57.823Z,15.15
2022-10-05T15:32:34.803Z,15.14
2022-10-05T15:35:18.028Z,15.12
2022-10-05T15:38:09.346Z,15.09
2022-10-05T15:40:39.874Z,15.05
2022-10-05T15:43:13.784Z,15.00
2022-10-05T15:45:53.918Z,14.95
2022-10-05T15:48:48.735Z,14.90
2022-10-05T15:51:31.142Z,14.83
2022-10-05T15:54:23.897Z,14.78
2022-10-05T15:57:12.240Z,14.71
2022-10-05T16:00:02.247Z,14.66
2022-10-05T16:02:44.671Z,14.58
2022-10-05T16:05:12.906Z,14.52
2022-10-05T16:08:08.015Z,14.47
2022-10-05T16:10:41.614Z,14.47
2022-10-05T16:13:15.316Z,14.46
2022-10-05T16:15:48.920Z,14.43
2022-10-05T16:18:18.730Z,14.41
2022-10-05T16:20:55.742Z,14.39
2022-10-05T16:23:23.684Z,14.37
2022-10-05T16:25:59.895Z,14.34
2022-10-05T16:28:38.536Z,14.31
2022-10-05T16:31:06.922Z,14.28
2022-10-05T16:33:54.711Z,14.23
2022-10-05T16:36:28.376Z,14.18
2022-10-05T16:39:15.083Z,14.14
2022-10-05T16:42:03.133Z,14.08
2022-10-05T16:44:43.073Z,14.04
2022-10-05T16:47:29.497Z,14.00
2022-10-05T16:50:05.071Z,13.97
2022-10-05T16:52:34.201Z,13.94
2022-10-05T16:55:04.660Z,13.96
2022-10-05T16:57:36.193Z,13.95
2022-10-05T17:00:14.889Z,13.93
2022-10-05T17:02:46.631Z,13.93
2022-10-05T17:05:42.600Z,13.93
2022-10-05T17:08:13.435Z,13.92
2022-10-05T17:10:41.303Z,13.90
2022-10-05T17:13:28.935Z,13.88
2022-10-05T17:16:06.156Z,13.85
2022-10-05T17:18:52.621Z,13.82
2022-10-05T17:21:34.931Z,13.79
2022-10-05T17:24:11.805Z,13.76
2022-10-05T17:26:48.273Z,13.72
2022-10-05T17:29:34.674Z,13.68
2022-10-05T17:32:02.641Z,13.65
2022-10-05T17:34:35.116Z,13.61
2022-10-05T17:37:32.168Z,13.57
2022-10-05T17:40:02.514Z,13.54
2022-10-05T17:42:30.461Z,13.57
2022-10-05T17:44:59.863Z,13.58
2022-10-05T17:47:47.603Z,13.57
2022-10-05T17:50:53.861Z,13.56
2022-10-05T17:53:46.099Z,13.55
2022-10-05T17:56:14.069Z,13.56
2022-10-05T17:58:44.804Z,13.57
2022-10-05T18:01:27.344Z,13.55
2022-10-05T18:04:16.890Z,13.53
2022-10-05T18:06:58.987Z,13.49
2022-10-05T18:09:27.879Z,13.47
2022-10-05T18:11:55.746Z,13.45
2022-10-05T18:14:24.964Z,13.43
2022-10-05T18:16:56.702Z,13.41
2022-10-05T18:19:24.977Z,13.39
2022-10-05T18:22:15.571Z,13.36
2022-10-05T18:24:43.443Z,13.33
2022-10-05T18:27:34.861Z,13.31
2022-10-05T18:30:12.456Z,13.27
2022-10-05T18:32:52.641Z,13.25
2022-10-05T18:35:27.340Z,13.24
2022-10-05T18:38:04.013Z,13.29
2022-10-05T18:40:38.514Z,13.32
2022-10-05T18:45:29.967Z,13.34
2022-10-05T18:47:57.833Z,13.34
2022-10-05T18:50:38.602Z,13.36
2022-10-05T18:53:19.370Z,13.36
2022-10-05T18:55:53.483Z,13.36
2022-10-05T18:58:26.318Z,13.35
2022-10-05T19:01:13.614Z,13.33
2022-10-05T19:03:41.763Z,13.30
2022-10-05T19:06:14.240Z,13.28
2022-10-05T19:08:54.801Z,13.26
2022-10-05T19:13:19.519Z,13.26
2022-10-05T19:16:03.083Z,13.28
2022-10-05T19:19:07.978Z,13.26
2022-10-05T19:21:47.291Z,13.24
2022-10-05T19:25:01.054Z,13.24
2022-10-05T19:27:51.800Z,13.24
2022-10-05T19:30:44.505Z,13.22
2022-10-05T19:33:40.634Z,13.19
2022-10-05T19:36:30.109Z,13.14
2022-10-05T19:39:06.373Z,13.10
2022-10-05T19:41:55.027Z,13.06
2022-10-05T19:44:44.599Z,13.09
2022-10-05T19:47:22.501Z,13.08
2022-10-05T19:49:53.238Z,13.07
2022-10-05T19:52:26.121Z,13.07
2022-10-05T19:55:12.930Z,13.07
2022-10-05T19:57:53.084Z,13.06
2022-10-05T20:00:33.240Z,13.05
2022-10-05T20:03:14.472Z,13.03
2022-10-05T20:05:42.796Z,13.00
2022-10-05T20:08:20.009Z,12.97
2022-10-05T20:11:09.454Z,12.98
2022-10-05T20:13:40.190Z,13.01
2022-10-05T20:16:36.085Z,13.00
2022-10-05T20:19:51.595Z,13.00
2022-10-05T20:22:33.168Z,12.98
2022-10-05T20:25:07.603Z,12.98
2022-10-05T20:27:37.400Z,12.97
2022-10-05T20:30:06.923Z,12.96
2022-10-05T20:32:50.791Z,12.95
2022-10-05T20:35:23.852Z,12.93
2022-10-05T20:38:12.709Z,12.89
2022-10-05T20:40:40.780Z,12.87
2022-10-05T20:43:33.224Z,12.92
2022-10-05T20:46:01.294Z,12.90
2022-10-05T20:48:29.623Z,12.90
2022-10-05T20:50:58.051Z,12.91
2022-10-05T20:53:26.123Z,12.92
2022-10-05T20:55:54.195Z,12.91
2022-10-05T20:58:23.948Z,12.91
2022-10-05T21:01:11.057Z,12.90
2022-10-05T21:03:39.195Z,12.89
2022-10-05T21:06:07.805Z,12.86
2022-10-05T21:08:37.499Z,12.82
2022-10-05T21:11:09.247Z,12.81
2022-10-05T21:13:44.794Z,12.83
2022-10-05T21:16:18.693Z,12.81
2022-10-05T21:18:48.926Z,12.79
2022-10-05T21:21:18.031Z,12.78
2022-10-05T21:23:47.421Z,12.78
2022-10-05T21:26:16.292Z,12.79
2022-10-05T21:28:44.655Z,12.78
2022-10-05T21:31:12.786Z,12.75
2022-10-05T21:33:41.242Z,12.72
2022-10-05T21:36:09.621Z,12.71
2022-10-05T21:38:37.962Z,12.67
2022-10-05T21:41:05.969Z,12.66
2022-10-05T21:43:35.270Z,12.70
2022-10-05T21:46:03.738Z,12.68
2022-10-05T21:48:33.972Z,12.65
2022-10-05T21:51:02.760Z,12.65
2022-10-05T21:53:34.108Z,12.64
2022-10-05T21:56:04.637Z,12.63
2022-10-05T21:58:32.810Z,12.62
2022-10-05T22:01:00.928Z,12.60
2022-10-05T22:03:29.880Z,12.58
2022-10-05T22:05:57.991Z,12.57
2022-10-05T22:08:29.511Z,12.54
2022-10-05T22:10:58.239Z,12.51
2022-10-05T22:13:27.718Z,12.53
2022-10-05T22:15:56.759Z,12.52
2022-10-05T22:18:27.133Z,12.51
2022-10-05T22:20:55.387Z,12.50
2022-10-05T22:23:23.456Z,12.50
2022-10-05T22:25:51.530Z,12.49
2022-10-05T22:28:19.723Z,12.49
2022-10-05T22:30:47.977Z,12.47
2022-10-05T22:33:16.052Z,12.45
2022-10-05T22:35:44.326Z,12.43
2022-10-05T22:38:12.397Z,12.40
2022-10-05T22:40:40.569Z,12.38
2022-10-05T22:43:08.951Z,12.42
2022-10-05T22:45:37.152Z,12.41
2022-10-05T22:48:05.912Z,12.39
2022-10-05T22:50:33.982Z,12.39
2022-10-05T22:53:02.054Z,12.40
2022-10-05T22:55:30.227Z,12.40
2022-10-05T22:57:58.298Z,12.38
2022-10-05T23:00:40.528Z,12.36
2022-10-05T23:03:16.255Z,12.34
2022-10-05T23:05:44.325Z,12.30
2022-10-05T23:08:12.394Z,12.27
2022-10-05T23:10:40.466Z,12.24
2022-10-05T23:13:08.947Z,12.23
2022-10-05T23:15:37.018Z,12.27
2022-10-05T23:18:05.091Z,12.26
2022-10-05T23:20:33.160Z,12.24
2022-10-05T23:23:01.232Z,12.22
2022-10-05T23:25:29.308Z,12.22
2022-10-05T23:27:57.397Z,12.22
2022-10-05T23:30:25.470Z,12.20
2022-10-05T23:32:53.621Z,12.16
2022-10-05T23:35:21.691Z,12.14
2022-10-05T23:37:49.660Z,12.13
2022-10-05T23:40:17.937Z,12.10
2022-10-05T23:42:47.237Z,12.07
2022-10-05T23:45:15.307Z,12.06
2022-10-05T23:47:43.379Z,12.11
2022-10-05T23:50:11.451Z,12.12
2022-10-05T23:52:39.523Z,12.11
2022-10-05T23:55:07.926Z,12.12
2022-10-05T23:57:35.974Z,12.13
